Time;durP1;ratioP1;P1;durP2;ratioP2;P2;SDS_P1;SDS_P2;PMS_P1;PMS_P2;Temp;Humidity;BMP_temperature;BMP_pressure;BME280_temperature;BME280_humidity;BME280_pressure;Samples;Min_cycle;Max_cycle;Signal;HPM_P1;HPM_P2
2022/05/11 00:00:49;;;;;;;;;10.00;8.00;;;;;;;;5051882;28;45388;-72
2022/05/11 00:03:14;;;;;;;;;5.75;5.75;;;;;;;;5053034;28;46245;-72
2022/05/11 00:05:39;;;;;;;;;6.75;5.00;;;;;;;;5053276;28;45337;-72
2022/05/11 00:08:05;;;;;;;;;3.00;3.00;;;;;;;;5052452;28;45432;-72
2022/05/11 00:10:30;;;;;;;;;6.25;5.00;;;;;;;;5053118;28;45510;-72
2022/05/11 00:12:57;;;;;;;;;7.25;5.50;;;;;;;;5054433;28;46703;-72
2022/05/11 00:15:23;;;;;;;;;7.00;6.00;;;;;;;;5052731;28;45494;-72
2022/05/11 00:17:48;;;;;;;;;7.50;7.50;;;;;;;;5053020;28;45594;-72
2022/05/11 00:20:15;;;;;;;;;6.00;5.00;;;;;;;;5053987;28;45629;-72
2022/05/11 00:22:40;;;;;;;;;4.75;4.75;;;;;;;;5049460;28;45554;-71
2022/05/11 00:25:07;;;;;;;;;5.00;4.75;;;;;;;;5054720;28;45453;-72
2022/05/11 00:27:32;;;;;;;;;5.50;5.50;;;;;;;;5052737;28;45527;-70
2022/05/11 00:29:58;;;;;;;;;6.25;6.25;;;;;;;;5052112;28;45434;-71
2022/05/11 00:32:25;;;;;;;;;6.75;6.25;;;;;;;;5053908;28;46670;-71
2022/05/11 00:34:50;;;;;;;;;4.25;4.25;;;;;;;;5052421;28;45495;-72
2022/05/11 00:37:15;;;;;;;;;4.75;4.50;;;;;;;;5039081;28;45182;-71
2022/05/11 00:39:40;;;;;;;;;6.75;6.75;;;;;;;;5041282;28;45222;-71
2022/05/11 00:42:06;;;;;;;;;4.00;4.00;;;;;;;;5041243;28;45400;-72
2022/05/11 00:44:32;;;;;;;;;5.50;5.50;;;;;;;;5040278;28;45452;-71
2022/05/11 00:46:59;;;;;;;;;8.75;5.50;;;;;;;;5052073;28;45423;-71
2022/05/11 00:49:38;;;;;;;;;5.50;5.25;;;;;;;;5052331;28;45315;-71
2022/05/11 00:52:14;;;;;;;;;5.00;5.00;;;;;;;;5039575;28;45455;-71
2022/05/11 00:54:49;;;;;;;;;7.25;5.25;;;;;;;;5040802;28;45356;-71
2022/05/11 00:57:25;;;;;;;;;6.50;5.25;;;;;;;;5052839;28;45515;-72
2022/05/11 00:59:51;;;;;;;;;6.75;4.00;;;;;;;;5058277;28;45383;-71
2022/05/11 01:02:18;;;;;;;;;7.75;6.75;;;;;;;;5058118;28;47407;-72
2022/05/11 01:04:44;;;;;;;;;11.00;5.75;;;;;;;;5053548;28;45514;-72
2022/05/11 01:07:10;;;;;;;;;4.00;4.00;;;;;;;;5059182;28;45379;-72
2022/05/11 01:09:36;;;;;;;;;6.25;5.00;;;;;;;;5058314;27;45377;-72
2022/05/11 01:12:02;;;;;;;;;6.00;3.25;;;;;;;;5057925;28;46061;-72
2022/05/11 01:14:31;;;;;;;;;9.00;7.00;;;;;;;;5057274;28;45313;-72
2022/05/11 01:16:57;;;;;;;;;4.25;4.00;;;;;;;;5054222;28;45458;-72
2022/05/11 01:19:25;;;;;;;;;6.00;6.00;;;;;;;;5056736;28;45424;-72
2022/05/11 01:21:54;;;;;;;;;7.00;5.75;;;;;;;;5059315;28;45970;-72
2022/05/11 01:24:23;;;;;;;;;8.00;7.00;;;;;;;;5039562;28;45683;-72
2022/05/11 01:26:48;;;;;;;;;7.75;7.75;;;;;;;;5057800;28;45448;-71
2022/05/11 01:29:13;;;;;;;;;5.25;5.25;;;;;;;;5053694;28;45510;-71
2022/05/11 01:31:38;;;;;;;;;6.25;6.00;;;;;;;;5069725;28;45426;-72
2022/05/11 01:34:04;;;;;;;;;5.25;5.25;;;;;;;;5059862;28;45424;-72
2022/05/11 01:36:31;;;;;;;;;6.00;6.00;;;;;;;;5057335;28;47307;-71
2022/05/11 01:39:04;;;;;;;;;7.00;4.00;;;;;;;;5057732;28;45441;-71
2022/05/11 01:41:31;;;;;;;;;6.00;5.25;;;;;;;;5057700;28;45488;-71
2022/05/11 01:43:56;;;;;;;;;4.75;4.75;;;;;;;;5054848;28;45542;-71
2022/05/11 01:46:21;;;;;;;;;10.00;8.00;;;;;;;;5056467;28;45466;-71
2022/05/11 01:48:47;;;;;;;;;5.50;5.50;;;;;;;;5058770;28;45461;-71
2022/05/11 01:51:13;;;;;;;;;7.25;7.00;;;;;;;;5057074;28;46194;-71
2022/05/11 01:53:38;;;;;;;;;5.00;5.00;;;;;;;;5055997;28;45518;-71
2022/05/11 01:56:04;;;;;;;;;4.50;4.50;;;;;;;;5056281;28;45542;-71
2022/05/11 01:58:30;;;;;;;;;10.75;7.50;;;;;;;;5054332;28;45378;-71
2022/05/11 02:00:55;;;;;;;;;5.00;5.00;;;;;;;;5041261;28;46327;-71
2022/05/11 02:03:20;;;;;;;;;5.75;4.00;;;;;;;;5057282;28;45320;-71
2022/05/11 02:08:31;;;;;;;;;2.75;2.75;;;;;;;;5060591;28;45529;-71
2022/05/11 02:10:56;;;;;;;;;5.00;5.00;;;;;;;;5059063;28;45302;-71
2022/05/11 02:13:21;;;;;;;;;5.00;5.00;;;;;;;;5059363;28;45625;-71
2022/05/11 02:15:49;;;;;;;;;4.00;4.00;;;;;;;;5062620;27;45280;-71
2022/05/11 02:18:15;;;;;;;;;4.25;4.25;;;;;;;;5059303;28;45386;-71
2022/05/11 02:20:40;;;;;;;;;6.00;5.00;;;;;;;;5060597;28;45438;-70
2022/05/11 02:23:05;;;;;;;;;5.75;4.75;;;;;;;;5059779;28;45510;-71
2022/05/11 02:25:30;;;;;;;;;4.25;4.00;;;;;;;;5057339;28;45490;-71
2022/05/11 02:27:55;;;;;;;;;5.50;4.25;;;;;;;;5062810;27;45272;-71
2022/05/11 02:30:23;;;;;;;;;3.25;3.25;;;;;;;;5060485;28;45981;-71
2022/05/11 02:32:49;;;;;;;;;5.00;5.00;;;;;;;;5060242;28;45322;-71
2022/05/11 02:35:14;;;;;;;;;11.50;9.00;;;;;;;;5058493;28;45468;-71
2022/05/11 02:37:41;;;;;;;;;7.25;4.00;;;;;;;;5056179;28;45486;-71
2022/05/11 02:40:06;;;;;;;;;5.50;4.25;;;;;;;;5062171;28;45431;-70
2022/05/11 02:42:32;;;;;;;;;4.00;4.00;;;;;;;;5060226;28;45494;-70
2022/05/11 02:44:57;;;;;;;;;4.00;4.00;;;;;;;;5066598;28;45254;-70
2022/05/11 02:47:22;;;;;;;;;6.50;6.50;;;;;;;;5070252;27;45465;-70
2022/05/11 02:49:47;;;;;;;;;9.00;5.75;;;;;;;;5056380;28;46156;-70
2022/05/11 02:52:14;;;;;;;;;8.50;6.00;;;;;;;;5060444;28;45279;-70
2022/05/11 02:54:39;;;;;;;;;7.00;6.00;;;;;;;;5059015;28;45586;-70
2022/05/11 02:57:05;;;;;;;;;4.00;4.00;;;;;;;;5059948;27;45835;-70
2022/05/11 02:59:30;;;;;;;;;7.00;7.00;;;;;;;;5049474;28;45387;-71
2022/05/11 03:01:56;;;;;;;;;7.75;7.00;;;;;;;;5053306;28;47777;-70
2022/05/11 03:04:22;;;;;;;;;6.00;6.00;;;;;;;;5054659;28;45439;-70
2022/05/11 03:06:50;;;;;;;;;7.00;7.00;;;;;;;;5024064;28;45580;-71
2022/05/11 03:09:15;;;;;;;;;7.50;7.50;;;;;;;;5042383;28;46257;-71
2022/05/11 03:11:41;;;;;;;;;9.50;5.75;;;;;;;;5042393;28;45254;-71
2022/05/11 03:14:06;;;;;;;;;6.25;4.50;;;;;;;;5039409;28;45447;-71
2022/05/11 03:16:31;;;;;;;;;7.00;6.25;;;;;;;;5035946;28;47555;-71
2022/05/11 03:18:59;;;;;;;;;7.50;7.50;;;;;;;;5051219;28;46890;-69
2022/05/11 03:21:24;;;;;;;;;7.75;7.75;;;;;;;;5050433;28;45367;-72
2022/05/11 03:23:49;;;;;;;;;8.50;7.00;;;;;;;;5050555;28;45558;-71
2022/05/11 03:26:15;;;;;;;;;5.50;5.50;;;;;;;;5050836;28;45419;-72
2022/05/11 03:28:40;;;;;;;;;6.00;5.25;;;;;;;;5053596;28;46077;-71
2022/05/11 03:31:05;;;;;;;;;4.00;4.00;;;;;;;;5040995;28;45424;-71
2022/05/11 03:36:14;;;;;;;;;9.50;8.00;;;;;;;;5041991;28;45348;-71
2022/05/11 03:38:39;;;;;;;;;13.25;10.25;;;;;;;;5049468;28;47071;-71
2022/05/11 03:41:05;;;;;;;;;14.00;11.50;;;;;;;;5058408;28;45343;-71
2022/05/11 03:43:30;;;;;;;;;17.75;15.25;;;;;;;;5038123;28;45445;-71
2022/05/11 03:45:55;;;;;;;;;32.50;22.50;;;;;;;;5070924;27;45331;-72
2022/05/11 03:48:20;;;;;;;;;37.00;32.00;;;;;;;;5042988;28;48246;-71
2022/05/11 03:50:45;;;;;;;;;39.00;34.00;;;;;;;;5059479;28;45502;-72
2022/05/11 03:53:11;;;;;;;;;36.00;34.00;;;;;;;;5059314;28;45426;-71
2022/05/11 03:55:36;;;;;;;;;45.50;37.00;;;;;;;;5055000;28;45471;-70
2022/05/11 03:58:01;;;;;;;;;39.50;34.75;;;;;;;;5060746;28;46803;-71
2022/05/11 04:00:27;;;;;;;;;50.25;38.50;;;;;;;;5058064;27;45285;-72
2022/05/11 04:02:53;;;;;;;;;44.75;34.25;;;;;;;;5058851;28;45362;-70
2022/05/11 04:05:18;;;;;;;;;48.00;33.25;;;;;;;;5059180;28;45428;-71
2022/05/11 04:07:44;;;;;;;;;34.75;32.50;;;;;;;;5054997;28;46314;-71
2022/05/11 04:10:14;;;;;;;;;39.00;34.25;;;;;;;;5060390;28;45396;-71
2022/05/11 04:12:39;;;;;;;;;35.00;29.00;;;;;;;;5057516;28;45532;-70
2022/05/11 04:15:05;;;;;;;;;23.00;19.75;;;;;;;;5058368;28;45419;-70
2022/05/11 04:17:30;;;;;;;;;22.50;22.50;;;;;;;;5058128;28;47059;-71
2022/05/11 04:19:55;;;;;;;;;26.75;22.50;;;;;;;;5055676;28;45414;-71
2022/05/11 04:22:21;;;;;;;;;23.50;22.00;;;;;;;;5057385;28;45518;-71
2022/05/11 04:24:46;;;;;;;;;26.50;19.25;;;;;;;;5059513;28;45482;-71
2022/05/11 04:27:11;;;;;;;;;30.00;24.00;;;;;;;;5057740;28;46289;-71
2022/05/11 04:29:37;;;;;;;;;24.50;23.00;;;;;;;;5057450;28;45430;-72
2022/05/11 04:32:02;;;;;;;;;31.50;27.50;;;;;;;;5057448;28;45431;-71
2022/05/11 04:34:28;;;;;;;;;23.25;20.75;;;;;;;;5053956;28;45435;-71
2022/05/11 04:36:53;;;;;;;;;26.00;23.75;;;;;;;;5051057;28;45956;-71
2022/05/11 04:39:18;;;;;;;;;22.25;20.00;;;;;;;;5048659;28;45515;-70
2022/05/11 04:41:44;;;;;;;;;22.75;20.25;;;;;;;;5049083;28;45440;-69
2022/05/11 04:44:09;;;;;;;;;18.50;14.00;;;;;;;;5030869;28;45651;-71
2022/05/11 04:46:35;;;;;;;;;17.00;16.75;;;;;;;;5052561;28;46107;-70
2022/05/11 04:49:19;;;;;;;;;16.75;13.75;;;;;;;;5050019;28;45295;-70
2022/05/11 04:51:48;;;;;;;;;15.00;11.75;;;;;;;;5049659;28;45568;-72
2022/05/11 04:54:14;;;;;;;;;18.25;16.25;;;;;;;;5048478;28;45503;-70
2022/05/11 04:56:39;;;;;;;;;16.75;16.75;;;;;;;;5048519;28;45909;-70
2022/05/11 04:59:05;;;;;;;;;16.25;14.00;;;;;;;;5049445;28;45416;-71
2022/05/11 05:01:30;;;;;;;;;16.50;12.00;;;;;;;;5051124;28;45415;-70
2022/05/11 05:03:55;;;;;;;;;16.00;11.50;;;;;;;;5051995;28;45364;-71
2022/05/11 05:06:21;;;;;;;;;15.75;14.75;;;;;;;;5049582;28;46858;-72
2022/05/11 05:08:46;;;;;;;;;13.00;11.50;;;;;;;;5048033;28;45348;-72
2022/05/11 05:11:12;;;;;;;;;17.00;16.75;;;;;;;;5046953;28;45444;-71
2022/05/11 05:13:37;;;;;;;;;11.75;11.75;;;;;;;;5042871;28;45433;-70
2022/05/11 05:16:03;;;;;;;;;11.25;9.75;;;;;;;;5047836;28;46153;-70
2022/05/11 05:18:28;;;;;;;;;10.00;9.50;;;;;;;;5050069;28;45313;-71
2022/05/11 05:20:55;;;;;;;;;13.00;11.75;;;;;;;;5049830;28;45414;-71
2022/05/11 05:23:20;;;;;;;;;13.75;12.75;;;;;;;;5049408;28;45625;-72
2022/05/11 05:25:46;;;;;;;;;19.75;16.75;;;;;;;;5046410;28;45485;-70
2022/05/11 05:31:05;;;;;;;;;13.75;11.00;;;;;;;;5047846;28;45488;-71
2022/05/11 05:33:31;;;;;;;;;13.50;10.75;;;;;;;;5041646;28;45660;-71
2022/05/11 05:35:57;;;;;;;;;16.25;14.50;;;;;;;;5048277;28;45566;-71
2022/05/11 05:38:22;;;;;;;;;17.00;13.50;;;;;;;;5053163;28;45516;-71
2022/05/11 05:40:47;;;;;;;;;12.25;10.50;;;;;;;;5049041;28;45490;-71
2022/05/11 05:43:13;;;;;;;;;18.50;13.00;;;;;;;;5048748;28;45494;-71
2022/05/11 05:45:38;;;;;;;;;11.25;9.50;;;;;;;;5046833;28;47203;-70
2022/05/11 05:48:03;;;;;;;;;20.00;17.00;;;;;;;;5049990;28;46046;-71
2022/05/11 05:50:28;;;;;;;;;12.75;12.25;;;;;;;;5052084;28;45474;-71
2022/05/11 05:52:55;;;;;;;;;16.75;13.00;;;;;;;;5046450;28;45520;-71
2022/05/11 05:55:21;;;;;;;;;14.25;12.25;;;;;;;;5054362;28;47470;-71
2022/05/11 05:57:47;;;;;;;;;15.75;14.00;;;;;;;;5046366;28;45498;-72
2022/05/11 06:00:13;;;;;;;;;18.50;14.00;;;;;;;;5052700;28;45341;-71
2022/05/11 06:02:38;;;;;;;;;12.75;11.50;;;;;;;;5062502;27;45417;-73
2022/05/11 06:05:03;;;;;;;;;16.50;16.25;;;;;;;;5065318;27;47343;-72
2022/05/11 06:07:28;;;;;;;;;15.00;15.00;;;;;;;;5022283;28;45526;-73
2022/05/11 06:09:54;;;;;;;;;11.50;10.50;;;;;;;;5057069;28;45530;-73
2022/05/11 06:12:19;;;;;;;;;18.50;15.50;;;;;;;;5049971;28;45314;-73
2022/05/11 06:14:45;;;;;;;;;6.75;6.00;;;;;;;;5049896;28;46773;-72
2022/05/11 06:17:23;;;;;;;;;13.25;11.50;;;;;;;;5051037;28;45280;-72
2022/05/11 06:19:49;;;;;;;;;14.25;14.25;;;;;;;;5039032;28;45892;-72
2022/05/11 06:22:14;;;;;;;;;15.75;14.75;;;;;;;;5052455;28;45407;-72
2022/05/11 06:24:40;;;;;;;;;16.50;15.00;;;;;;;;5049803;28;46361;-72
2022/05/11 06:27:05;;;;;;;;;15.00;13.50;;;;;;;;5049465;28;45481;-71
2022/05/11 06:29:31;;;;;;;;;15.25;14.50;;;;;;;;5050398;28;45625;-72
2022/05/11 06:31:56;;;;;;;;;14.50;14.50;;;;;;;;5052246;28;45425;-72
2022/05/11 06:34:21;;;;;;;;;16.25;12.50;;;;;;;;5052646;28;47215;-71
2022/05/11 06:36:47;;;;;;;;;16.25;11.75;;;;;;;;5050828;28;45381;-73
2022/05/11 06:39:12;;;;;;;;;11.25;10.75;;;;;;;;5049412;28;45447;-72
2022/05/11 06:41:38;;;;;;;;;14.50;12.75;;;;;;;;5050559;28;45296;-73
2022/05/11 06:44:03;;;;;;;;;14.00;12.75;;;;;;;;5038353;28;46426;-72
2022/05/11 06:46:28;;;;;;;;;15.75;12.50;;;;;;;;5052885;28;45759;-71
2022/05/11 06:48:54;;;;;;;;;11.50;10.00;;;;;;;;5060935;28;45258;-71
2022/05/11 06:51:19;;;;;;;;;14.00;13.25;;;;;;;;5059083;27;45342;-71
2022/05/11 06:59:21;;;;;;;;;9.75;9.75;;;;;;;;5066026;27;45354;-72
2022/05/11 07:01:54;;;;;;;;;13.75;11.50;;;;;;;;5046594;28;45340;-71
2022/05/11 07:04:22;;;;;;;;;14.25;14.25;;;;;;;;5057913;28;47020;-72
2022/05/11 07:06:48;;;;;;;;;14.75;12.50;;;;;;;;5060164;27;45377;-72
2022/05/11 07:09:13;;;;;;;;;15.00;14.00;;;;;;;;5058274;28;45574;-71
2022/05/11 07:14:23;;;;;;;;;19.75;15.50;;;;;;;;5058731;27;45690;-72
2022/05/11 07:16:49;;;;;;;;;15.50;13.75;;;;;;;;5055125;28;45253;-73
2022/05/11 07:19:14;;;;;;;;;12.50;11.75;;;;;;;;5059404;27;45446;-72
2022/05/11 07:21:39;;;;;;;;;13.75;11.25;;;;;;;;5057432;28;45257;-72
2022/05/11 07:24:05;;;;;;;;;11.00;8.75;;;;;;;;5057550;28;45693;-72
2022/05/11 07:26:30;;;;;;;;;10.75;10.75;;;;;;;;5039993;28;45586;-72
2022/05/11 07:28:55;;;;;;;;;11.50;11.00;;;;;;;;5055328;28;45178;-72
2022/05/11 07:31:20;;;;;;;;;12.50;12.50;;;;;;;;5057142;28;45219;-73
2022/05/11 07:33:45;;;;;;;;;10.75;10.75;;;;;;;;5056803;27;47453;-72
2022/05/11 07:36:11;;;;;;;;;20.00;14.50;;;;;;;;5058318;28;45423;-72
2022/05/11 07:38:38;;;;;;;;;13.25;11.50;;;;;;;;5057938;28;45249;-72
2022/05/11 07:41:04;;;;;;;;;12.00;11.00;;;;;;;;5049600;28;45219;-73
2022/05/11 07:43:29;;;;;;;;;11.50;11.00;;;;;;;;5068342;27;46100;-72
2022/05/11 07:45:55;;;;;;;;;9.00;9.00;;;;;;;;5060023;28;45364;-72
2022/05/11 07:48:20;;;;;;;;;7.25;7.25;;;;;;;;5058502;27;45494;-72
2022/05/11 07:50:45;;;;;;;;;9.75;9.75;;;;;;;;5058259;28;45431;-72
2022/05/11 07:53:11;;;;;;;;;14.50;11.25;;;;;;;;5056990;28;46921;-72
2022/05/11 07:55:36;;;;;;;;;10.00;7.50;;;;;;;;5053809;28;45384;-71
2022/05/11 08:00:46;;;;;;;;;8.75;8.75;;;;;;;;5058961;28;45466;-73
2022/05/11 08:03:11;;;;;;;;;10.00;10.00;;;;;;;;5058049;28;46776;-71
2022/05/11 08:05:38;;;;;;;;;8.25;7.00;;;;;;;;5057435;28;45770;-71
2022/05/11 08:08:05;;;;;;;;;10.75;9.50;;;;;;;;5056048;28;45384;-72
2022/05/11 08:10:35;;;;;;;;;10.00;8.75;;;;;;;;5054561;28;45555;-72
2022/05/11 08:13:04;;;;;;;;;8.25;7.25;;;;;;;;5059373;27;46310;-72
2022/05/11 08:15:31;;;;;;;;;10.25;8.75;;;;;;;;5063930;28;45514;-71
2022/05/11 08:17:57;;;;;;;;;6.75;6.75;;;;;;;;5063409;27;45296;-72
2022/05/11 08:20:24;;;;;;;;;7.25;7.25;;;;;;;;5057530;28;45328;-72
2022/05/11 08:22:51;;;;;;;;;5.50;5.50;;;;;;;;5053901;28;47269;-72
2022/05/11 08:25:19;;;;;;;;;4.00;4.00;;;;;;;;5057980;27;45443;-72
2022/05/11 08:27:44;;;;;;;;;6.50;6.50;;;;;;;;5058865;28;45429;-72
2022/05/11 08:35:38;;;;;;;;;6.00;4.00;;;;;;;;5057019;28;45493;-72
2022/05/11 08:38:04;;;;;;;;;5.00;5.00;;;;;;;;5056114;28;45472;-72
2022/05/11 08:40:32;;;;;;;;;7.00;7.00;;;;;;;;5054297;28;45337;-72
2022/05/11 08:42:57;;;;;;;;;4.50;4.50;;;;;;;;5060102;27;46016;-72
2022/05/11 08:45:29;;;;;;;;;7.50;5.00;;;;;;;;5057972;27;45359;-72
2022/05/11 08:47:54;;;;;;;;;4.00;4.00;;;;;;;;5057936;27;45538;-74
2022/05/11 08:50:22;;;;;;;;;5.50;5.50;;;;;;;;5056057;28;45477;-72
2022/05/11 08:52:48;;;;;;;;;6.50;6.50;;;;;;;;5053189;28;46351;-72
2022/05/11 08:55:35;;;;;;;;;2.00;2.00;;;;;;;;5058018;28;45238;-72
2022/05/11 08:58:04;;;;;;;;;5.00;4.25;;;;;;;;5058554;28;45526;-71
2022/05/11 09:00:29;;;;;;;;;3.25;3.25;;;;;;;;5057398;28;45506;-72
2022/05/11 09:03:13;;;;;;;;;5.25;3.75;;;;;;;;5056435;28;46326;-71
2022/05/11 09:05:38;;;;;;;;;9.50;4.50;;;;;;;;5060277;28;45347;-72
2022/05/11 09:08:05;;;;;;;;;4.50;3.75;;;;;;;;5068663;27;45398;-72
2022/05/11 09:10:32;;;;;;;;;5.00;5.00;;;;;;;;5054015;28;45364;-72
2022/05/11 09:12:59;;;;;;;;;2.75;2.75;;;;;;;;5068643;28;46355;-71
2022/05/11 09:15:57;;;;;;;;;6.25;5.00;;;;;;;;5057618;28;45561;-72
2022/05/11 09:18:33;;;;;;;;;4.50;4.50;;;;;;;;4995442;28;46010;-72
2022/05/11 09:20:59;;;;;;;;;2.25;2.25;;;;;;;;4995696;28;45338;-71
2022/05/11 09:23:36;;;;;;;;;4.50;4.50;;;;;;;;4996010;28;47476;-72
2022/05/11 09:26:07;;;;;;;;;4.25;3.00;;;;;;;;4991894;28;45513;-72
2022/05/11 09:28:34;;;;;;;;;4.00;4.00;;;;;;;;5007856;28;45444;-72
2022/05/11 09:31:01;;;;;;;;;4.25;3.75;;;;;;;;4996325;28;45469;-72
2022/05/11 09:33:34;;;;;;;;;6.00;4.50;;;;;;;;4995140;28;46187;-70
2022/05/11 09:36:03;;;;;;;;;4.75;4.75;;;;;;;;4979036;28;45937;-71
2022/05/11 09:38:35;;;;;;;;;3.00;2.75;;;;;;;;4995297;28;45529;-71
2022/05/11 09:41:01;;;;;;;;;3.00;3.00;;;;;;;;4993941;28;45228;-73
2022/05/11 09:43:26;;;;;;;;;3.25;2.25;;;;;;;;4993196;28;46011;-72
2022/05/11 09:45:51;;;;;;;;;5.50;4.50;;;;;;;;4995587;28;45373;-72
2022/05/11 09:48:22;;;;;;;;;3.75;2.75;;;;;;;;4995003;28;45494;-72
2022/05/11 09:50:52;;;;;;;;;4.75;4.75;;;;;;;;4995566;28;45410;-72
2022/05/11 09:53:21;;;;;;;;;5.00;3.50;;;;;;;;5009112;27;46208;-72
2022/05/11 09:55:48;;;;;;;;;3.33;3.33;;;;;;;;5052282;28;45537;-72
2022/05/11 09:58:25;;;;;;;;;4.50;3.00;;;;;;;;5057420;28;45392;-73
2022/05/11 10:00:50;;;;;;;;;2.25;2.25;;;;;;;;5057676;28;45386;-72
2022/05/11 10:03:21;;;;;;;;;3.75;2.75;;;;;;;;5055511;28;45774;-72
2022/05/11 10:05:48;;;;;;;;;2.75;2.75;;;;;;;;5054496;27;45386;-72
2022/05/11 10:08:34;;;;;;;;;2.50;2.50;;;;;;;;5055854;28;45408;-71
2022/05/11 10:11:08;;;;;;;;;5.00;5.00;;;;;;;;5040208;28;45529;-72
2022/05/11 10:13:40;;;;;;;;;4.50;4.00;;;;;;;;5051858;28;47081;-72
2022/05/11 10:21:50;;;;;;;;;2.75;2.75;;;;;;;;5054823;27;45459;-72
2022/05/11 10:24:31;;;;;;;;;8.00;4.25;;;;;;;;5055492;28;46192;-72
2022/05/11 10:26:56;;;;;;;;;3.25;3.00;;;;;;;;5055636;28;45462;-72
2022/05/11 10:29:45;;;;;;;;;7.50;4.75;;;;;;;;5056838;28;45446;-72
2022/05/11 10:32:13;;;;;;;;;4.00;4.00;;;;;;;;5049554;28;45456;-71
2022/05/11 10:34:55;;;;;;;;;4.75;3.50;;;;;;;;5054908;28;47382;-72
2022/05/11 10:37:27;;;;;;;;;3.00;3.00;;;;;;;;5069352;28;45402;-72
2022/05/11 10:40:07;;;;;;;;;3.00;2.50;;;;;;;;5074549;27;45405;-72
2022/05/11 10:42:39;;;;;;;;;7.50;7.00;;;;;;;;5058277;28;45371;-73
2022/05/11 10:45:08;;;;;;;;;5.25;3.00;;;;;;;;5058553;27;47087;-73
2022/05/11 10:47:33;;;;;;;;;2.75;2.75;;;;;;;;5058360;28;45410;-72
2022/05/11 10:50:17;;;;;;;;;4.00;4.00;;;;;;;;5056713;28;45411;-71
2022/05/11 10:52:51;;;;;;;;;7.25;7.25;;;;;;;;5038534;28;45245;-71
2022/05/11 10:55:25;;;;;;;;;7.50;5.50;;;;;;;;5068475;27;45383;-72
2022/05/11 10:58:05;;;;;;;;;4.00;2.75;;;;;;;;5060370;27;45453;-72
2022/05/11 11:00:41;;;;;;;;;5.75;4.25;;;;;;;;5058386;28;45363;-72
2022/05/11 11:03:21;;;;;;;;;5.75;5.50;;;;;;;;5058679;28;45491;-71
2022/05/11 11:09:00;;;;;;;;;4.50;3.00;;;;;;;;4997361;28;45507;-72
2022/05/11 11:11:37;;;;;;;;;4.00;4.00;;;;;;;;4997508;28;45514;-70
2022/05/11 11:14:05;;;;;;;;;1.75;1.75;;;;;;;;4995844;28;45350;-70
2022/05/11 11:16:35;;;;;;;;;5.25;5.25;;;;;;;;4993499;28;46186;-71
2022/05/11 11:19:01;;;;;;;;;5.00;4.00;;;;;;;;4997536;28;45417;-72
2022/05/11 11:21:27;;;;;;;;;5.50;4.50;;;;;;;;4997827;28;45514;-72
2022/05/11 11:24:10;;;;;;;;;4.00;4.00;;;;;;;;4997587;28;45484;-71
2022/05/11 11:26:41;;;;;;;;;3.50;3.00;;;;;;;;4996943;28;47055;-72
2022/05/11 11:29:06;;;;;;;;;4.00;4.00;;;;;;;;4996144;28;45544;-72
2022/05/11 11:31:31;;;;;;;;;4.25;4.25;;;;;;;;4993766;28;45652;-72
2022/05/11 11:34:05;;;;;;;;;7.25;7.25;;;;;;;;4998031;28;45438;-71
2022/05/11 11:36:33;;;;;;;;;6.75;6.75;;;;;;;;4997036;28;46306;-73
2022/05/11 11:39:00;;;;;;;;;5.50;5.50;;;;;;;;4996484;28;45365;-71
2022/05/11 11:41:28;;;;;;;;;4.00;3.00;;;;;;;;4996938;28;45548;-72
2022/05/11 11:43:53;;;;;;;;;3.50;3.00;;;;;;;;4994193;28;45513;-72
2022/05/11 11:46:28;;;;;;;;;3.00;3.00;;;;;;;;5052883;28;46407;-72
2022/05/11 11:49:00;;;;;;;;;4.25;2.75;;;;;;;;5059961;28;45329;-72
2022/05/11 11:51:53;;;;;;;;;3.75;3.00;;;;;;;;5057918;28;45404;-72
2022/05/11 11:54:27;;;;;;;;;5.00;5.00;;;;;;;;5055153;27;45273;-71
2022/05/11 11:56:54;;;;;;;;;2.50;2.50;;;;;;;;5039807;28;46029;-72
2022/05/11 11:59:22;;;;;;;;;6.00;3.50;;;;;;;;5057650;28;45515;-71
2022/05/11 12:01:48;;;;;;;;;2.00;2.00;;;;;;;;5054510;28;45374;-72
2022/05/11 12:04:19;;;;;;;;;3.00;2.75;;;;;;;;5059012;27;45329;-71
2022/05/11 12:15:09;;;;;;;;;2.67;2.67;;;;;;;;5056510;27;45559;-72
2022/05/11 12:17:36;;;;;;;;;4.00;3.00;;;;;;;;5055979;28;48202;-73
2022/05/11 12:20:12;;;;;;;;;2.33;2.33;;;;;;;;5069039;27;45433;-72
2022/05/11 12:22:46;;;;;;;;;1.00;1.00;;;;;;;;5053920;28;45368;-71
2022/05/11 12:25:19;;;;;;;;;3.67;2.00;;;;;;;;5067256;28;45309;-72
2022/05/11 12:27:44;;;;;;;;;7.33;4.33;;;;;;;;5057462;28;45413;-72
2022/05/11 12:30:35;;;;;;;;;2.33;0.67;;;;;;;;5056528;28;45463;-73
2022/05/11 12:33:02;;;;;;;;;2.75;2.75;;;;;;;;5054950;27;45577;-72
2022/05/11 12:35:35;;;;;;;;;2.00;2.00;;;;;;;;5057688;28;45472;-73
2022/05/11 12:38:00;;;;;;;;;5.00;3.67;;;;;;;;5055006;28;47469;-72
2022/05/11 12:40:26;;;;;;;;;5.00;4.33;;;;;;;;5055201;28;45365;-72
2022/05/11 12:42:53;;;;;;;;;2.67;2.67;;;;;;;;5058506;27;45378;-72
2022/05/11 12:45:25;;;;;;;;;1.67;1.67;;;;;;;;5057380;28;45450;-73
2022/05/11 12:47:53;;;;;;;;;1.33;1.33;;;;;;;;5057081;28;46450;-72
2022/05/11 12:50:30;;;;;;;;;3.67;3.00;;;;;;;;5057296;27;45464;-72
2022/05/11 12:52:59;;;;;;;;;2.00;2.00;;;;;;;;5053537;28;45521;-72
2022/05/11 12:55:26;;;;;;;;;3.00;1.33;;;;;;;;5055574;27;45402;-72
2022/05/11 12:57:55;;;;;;;;;3.00;3.00;;;;;;;;5058333;28;45445;-72
2022/05/11 13:00:22;;;;;;;;;2.67;2.00;;;;;;;;5057363;28;45434;-71
2022/05/11 13:02:49;;;;;;;;;3.00;2.00;;;;;;;;5057350;28;45272;-71
2022/05/11 13:05:16;;;;;;;;;4.67;2.33;;;;;;;;5056449;28;45547;-72
2022/05/11 13:08:00;;;;;;;;;2.67;1.67;;;;;;;;5036165;28;46381;-71
2022/05/11 13:10:36;;;;;;;;;3.00;2.00;;;;;;;;5067278;28;45343;-71
2022/05/11 13:13:04;;;;;;;;;3.00;1.33;;;;;;;;5057646;28;45460;-71
2022/05/11 13:15:48;;;;;;;;;3.00;3.00;;;;;;;;5056615;27;45421;-72
2022/05/11 13:18:22;;;;;;;;;3.33;2.00;;;;;;;;5056461;28;45466;-71
2022/05/11 13:20:49;;;;;;;;;2.67;1.00;;;;;;;;5056407;28;45459;-72
2022/05/11 13:23:33;;;;;;;;;1.33;1.33;;;;;;;;5056639;28;45474;-72
2022/05/11 13:26:00;;;;;;;;;1.67;1.67;;;;;;;;5040027;28;45504;-72
2022/05/11 13:28:31;;;;;;;;;0.67;0.67;;;;;;;;5054859;28;46053;-71
2022/05/11 13:30:58;;;;;;;;;3.00;2.67;;;;;;;;5055672;27;45407;-72
2022/05/11 13:33:35;;;;;;;;;1.00;1.00;;;;;;;;5056543;27;45450;-71
2022/05/11 13:36:08;;;;;;;;;2.00;2.00;;;;;;;;5056933;28;45513;-71
2022/05/11 13:38:33;;;;;;;;;2.33;1.67;;;;;;;;5056565;28;46152;-71
2022/05/11 13:41:00;;;;;;;;;2.00;0.67;;;;;;;;5054211;28;45375;-70
2022/05/11 13:43:34;;;;;;;;;2.33;1.00;;;;;;;;5055287;28;45374;-71
2022/05/11 13:46:09;;;;;;;;;3.00;1.67;;;;;;;;5057448;28;45405;-72
2022/05/11 13:48:36;;;;;;;;;3.67;2.67;;;;;;;;5056122;28;45477;-71
2022/05/11 13:51:15;;;;;;;;;1.00;1.00;;;;;;;;5056533;28;45430;-74
2022/05/11 13:53:41;;;;;;;;;1.00;1.00;;;;;;;;5056459;28;45375;-71
2022/05/11 13:56:09;;;;;;;;;2.00;2.00;;;;;;;;5055053;28;45446;-72
2022/05/11 13:58:34;;;;;;;;;2.67;2.00;;;;;;;;5053724;28;47072;-72
2022/05/11 14:01:02;;;;;;;;;3.00;2.00;;;;;;;;5063115;28;45331;-73
2022/05/11 14:03:31;;;;;;;;;1.00;1.00;;;;;;;;5058717;28;45254;-71
2022/05/11 14:05:57;;;;;;;;;3.00;1.00;;;;;;;;5068642;28;45701;-71
2022/05/11 14:08:22;;;;;;;;;0.00;0.00;;;;;;;;5076246;27;46002;-74
2022/05/11 14:10:47;;;;;;;;;0.00;0.00;;;;;;;;5054477;28;45477;-73
2022/05/11 14:13:12;;;;;;;;;3.33;2.00;;;;;;;;5070062;27;45811;-73
2022/05/11 14:15:38;;;;;;;;;1.33;1.33;;;;;;;;5060132;28;45642;-73
2022/05/11 14:18:08;;;;;;;;;3.33;0.67;;;;;;;;5059515;28;45514;-71
2022/05/11 14:20:34;;;;;;;;;0.00;0.00;;;;;;;;5059709;28;45435;-72
2022/05/11 14:23:00;;;;;;;;;1.67;1.00;;;;;;;;5057765;28;45853;-73
2022/05/11 14:25:25;;;;;;;;;1.33;1.33;;;;;;;;5057899;27;45491;-74
2022/05/11 14:27:50;;;;;;;;;3.00;2.25;;;;;;;;5060483;28;47183;-75
2022/05/11 14:30:15;;;;;;;;;3.25;2.25;;;;;;;;5059405;27;45633;-74
2022/05/11 14:32:44;;;;;;;;;3.50;3.00;;;;;;;;5058939;28;45463;-73
2022/05/11 14:35:12;;;;;;;;;2.00;2.00;;;;;;;;5058682;28;45421;-75
2022/05/11 14:37:38;;;;;;;;;1.00;1.00;;;;;;;;5054947;27;46843;-76
2022/05/11 14:40:04;;;;;;;;;0.33;0.33;;;;;;;;5061134;27;45443;-73
2022/05/11 14:42:33;;;;;;;;;0.00;0.00;;;;;;;;5059685;27;45545;-73
2022/05/11 14:44:58;;;;;;;;;1.33;1.33;;;;;;;;5059274;27;45536;-76
2022/05/11 14:47:23;;;;;;;;;3.00;2.00;;;;;;;;5058770;28;46896;-76
2022/05/11 14:49:49;;;;;;;;;7.00;3.00;;;;;;;;5055485;28;45478;-72
2022/05/11 14:52:14;;;;;;;;;1.00;0.00;;;;;;;;5060302;28;45273;-71
2022/05/11 14:54:39;;;;;;;;;0.33;0.33;;;;;;;;5059314;27;45313;-72
2022/05/11 15:02:36;;;;;;;;;1.33;0.67;;;;;;;;5057213;28;45601;-70
2022/05/11 15:05:05;;;;;;;;;0.67;0.67;;;;;;;;5069895;28;45526;-71
2022/05/11 15:07:31;;;;;;;;;1.00;1.00;;;;;;;;5055339;28;46335;-71
2022/05/11 15:09:56;;;;;;;;;2.00;2.00;;;;;;;;5060667;28;45441;-72
2022/05/11 15:15:07;;;;;;;;;1.00;1.00;;;;;;;;5057482;28;45410;-71
2022/05/11 15:17:32;;;;;;;;;0.00;0.00;;;;;;;;5058172;27;46521;-73
2022/05/11 15:20:00;;;;;;;;;2.00;1.00;;;;;;;;5055749;28;45444;-74
2022/05/11 15:22:27;;;;;;;;;0.00;0.00;;;;;;;;5056713;28;45448;-72
2022/05/11 15:24:52;;;;;;;;;4.00;1.00;;;;;;;;5060002;27;45384;-73
2022/05/11 15:27:17;;;;;;;;;0.33;0.00;;;;;;;;5058445;28;45264;-73
2022/05/11 15:29:43;;;;;;;;;3.00;1.67;;;;;;;;5040569;28;45506;-71